Time;durP1;ratioP1;P1;durP2;ratioP2;P2;SDS_P1;SDS_P2;PMS_P1;PMS_P2;Temp;Humidity;BMP_temperature;BMP_pressure;BME280_temperature;BME280_humidity;BME280_pressure;Samples;Min_cycle;Max_cycle;Signal;HPM_P1;HPM_P2
2020/12/12 00:00:58;;;;;;;17.13;10.63;;;;;;;2.84;75.96;92314.59;5105767;28;20049;-62
2020/12/12 00:03:24;;;;;;;16.95;10.20;;;;;;;2.86;76.02;92309.34;5086046;28;20110;-63
2020/12/12 00:05:49;;;;;;;14.43;9.05;;;;;;;2.81;76.43;92313.69;5096942;28;20115;-66
2020/12/12 00:08:15;;;;;;;15.63;8.70;;;;;;;2.93;76.60;92314.91;5096369;28;20052;-66
2020/12/12 00:10:40;;;;;;;14.43;7.88;;;;;;;3.02;76.30;92314.50;5088167;28;20110;-64
2020/12/12 00:13:08;;;;;;;15.93;8.07;;;;;;;3.06;76.94;92305.97;5086888;28;20042;-63
2020/12/12 00:15:36;;;;;;;16.60;9.20;;;;;;;3.00;76.90;92308.84;5086171;28;20032;-63
2020/12/12 00:18:02;;;;;;;39.55;16.02;;;;;;;3.03;77.56;92307.75;5078070;28;20028;-64
2020/12/12 00:20:29;;;;;;;27.02;12.60;;;;;;;3.01;77.85;92304.13;5087084;28;20043;-63
2020/12/12 00:22:56;;;;;;;29.77;15.13;;;;;;;3.10;77.51;92314.56;5079843;28;20076;-63
2020/12/12 00:25:21;;;;;;;30.25;13.45;;;;;;;3.05;77.35;92310.69;5086710;28;20479;-65
2020/12/12 00:27:47;;;;;;;28.38;13.50;;;;;;;3.07;77.63;92312.91;5084881;28;20031;-65
2020/12/12 00:30:12;;;;;;;27.88;12.27;;;;;;;3.23;77.20;92308.38;5085472;28;20059;-65
2020/12/12 00:32:37;;;;;;;30.08;15.02;;;;;;;3.37;76.18;92304.31;5087211;28;20036;-65
2020/12/12 00:35:03;;;;;;;24.02;10.98;;;;;;;3.35;75.92;92304.13;5087494;28;20040;-65
2020/12/12 00:37:29;;;;;;;18.55;9.48;;;;;;;3.37;76.04;92293.41;5087666;28;20040;-65
2020/12/12 00:39:54;;;;;;;24.88;11.10;;;;;;;2.95;76.41;92257.88;5086361;28;20052;-64
2020/12/12 00:42:19;;;;;;;25.58;11.68;;;;;;;3.23;76.92;92295.44;5087886;28;20062;-64
2020/12/12 00:44:45;;;;;;;22.90;11.13;;;;;;;3.18;76.96;92290.13;5088410;28;20415;-64
2020/12/12 00:47:10;;;;;;;16.38;9.15;;;;;;;3.00;77.13;92289.00;5085555;28;20210;-64
2020/12/12 00:49:36;;;;;;;16.25;9.55;;;;;;;2.93;77.14;92287.66;5085483;28;20407;-64
2020/12/12 00:52:01;;;;;;;14.10;7.78;;;;;;;2.92;78.73;92286.19;5088586;28;20429;-64
2020/12/12 00:54:27;;;;;;;17.27;8.45;;;;;;;3.12;77.69;92282.03;5087125;28;20051;-64
2020/12/12 00:56:52;;;;;;;17.90;10.07;;;;;;;3.29;76.44;92278.97;5085782;28;20031;-64
2020/12/12 00:59:18;;;;;;;18.88;8.60;;;;;;;3.33;76.64;92265.72;5086266;28;20024;-64
2020/12/12 01:01:45;;;;;;;20.83;10.40;;;;;;;3.37;76.26;92279.75;5088455;28;20032;-64
2020/12/12 01:04:11;;;;;;;22.00;10.38;;;;;;;3.40;76.30;92267.81;5085018;28;20024;-64
2020/12/12 01:06:37;;;;;;;18.33;9.93;;;;;;;3.42;76.30;92273.47;5083603;28;20043;-64
2020/12/12 01:09:02;;;;;;;16.35;7.85;;;;;;;3.35;76.08;92269.41;5086966;28;20255;-64
2020/12/12 01:11:28;;;;;;;15.15;8.32;;;;;;;3.35;76.42;92263.94;5086970;28;20504;-64
2020/12/12 01:13:53;;;;;;;13.88;8.35;;;;;;;3.04;77.34;92262.88;5084325;28;20032;-64
2020/12/12 01:16:19;;;;;;;14.48;7.68;;;;;;;3.04;77.93;92254.69;5087563;28;21335;-64
2020/12/12 01:18:44;;;;;;;13.65;7.43;;;;;;;2.98;78.95;92256.81;5087435;28;20111;-64
2020/12/12 01:21:15;;;;;;;15.88;8.85;;;;;;;2.80;79.54;92256.97;5088541;28;20027;-64
2020/12/12 01:23:40;;;;;;;16.98;9.70;;;;;;;2.93;79.47;92252.22;5083412;28;20038;-65
2020/12/12 01:26:05;;;;;;;24.13;12.50;;;;;;;2.94;79.99;92248.25;5088402;28;20032;-65
2020/12/12 01:28:31;;;;;;;34.22;17.27;;;;;;;2.85;80.32;92243.22;5086467;28;20035;-65
2020/12/12 01:30:56;;;;;;;36.75;18.70;;;;;;;2.99;80.12;92228.28;5084673;28;20050;-65
2020/12/12 01:33:22;;;;;;;28.95;15.40;;;;;;;3.06;79.89;92238.53;5085941;28;20019;-64
2020/12/12 01:35:47;;;;;;;26.63;14.70;;;;;;;3.09;80.37;92234.03;5090004;28;20031;-64
2020/12/12 01:38:13;;;;;;;12.27;7.15;;;;;;;3.04;80.26;92226.69;5085788;28;20130;-64
2020/12/12 01:40:39;;;;;;;12.40;7.47;;;;;;;3.17;80.11;92229.38;5088990;28;20032;-64
2020/12/12 01:43:04;;;;;;;13.07;7.63;;;;;;;3.25;79.48;92232.19;5085583;28;20110;-64
2020/12/12 01:45:30;;;;;;;11.40;6.50;;;;;;;3.29;79.73;92222.41;5085981;28;20035;-64
2020/12/12 01:47:57;;;;;;;43.20;21.70;;;;;;;3.34;79.21;92223.53;5086450;28;20486;-64
2020/12/12 01:50:24;;;;;;;68.10;33.58;;;;;;;3.38;79.20;92218.50;5084903;28;20024;-65
2020/12/12 01:52:50;;;;;;;21.05;11.95;;;;;;;3.45;79.27;92215.09;5086124;28;20132;-65
2020/12/12 01:55:20;;;;;;;21.15;12.38;;;;;;;3.42;79.26;92205.97;5089255;28;20028;-65
2020/12/12 01:57:52;;;;;;;24.75;12.25;;;;;;;3.49;79.19;92213.50;5089444;28;21957;-64
2020/12/12 02:00:21;;;;;;;44.55;21.30;;;;;;;3.25;79.25;92210.38;5089888;28;20091;-64
2020/12/12 02:02:53;;;;;;;22.73;13.68;;;;;;;3.39;79.50;92209.03;5084946;28;20032;-64
2020/12/12 02:05:39;;;;;;;27.98;14.02;;;;;;;3.50;79.37;92208.78;5092416;28;20024;-65
2020/12/12 02:08:15;;;;;;;31.20;15.85;;;;;;;3.49;79.32;92208.03;5092067;28;20023;-65
2020/12/12 02:10:43;;;;;;;34.75;15.75;;;;;;;3.36;79.24;92196.44;5086610;28;20119;-64
2020/12/12 02:13:09;;;;;;;27.40;13.00;;;;;;;3.27;79.34;92196.94;5089871;28;20514;-64
2020/12/12 02:15:36;;;;;;;18.85;9.52;;;;;;;3.35;80.07;92193.00;5097044;28;20055;-64
2020/12/12 02:18:03;;;;;;;19.85;9.75;;;;;;;3.36;80.08;92194.47;5095262;28;20553;-64
2020/12/12 02:20:28;;;;;;;13.45;8.20;;;;;;;3.56;79.05;92185.53;5103212;28;20023;-64
2020/12/12 02:22:55;;;;;;;11.00;7.07;;;;;;;3.57;79.66;92184.25;5094585;28;20031;-64
2020/12/12 02:25:20;;;;;;;13.07;7.72;;;;;;;3.49;79.56;92182.75;5092571;28;20868;-64
2020/12/12 02:27:48;;;;;;;15.57;8.48;;;;;;;3.44;80.21;92183.63;5083932;28;20040;-64
2020/12/12 02:30:14;;;;;;;14.32;8.30;;;;;;;3.55;80.33;92181.34;5088190;28;20036;-64
2020/12/12 02:32:39;;;;;;;10.80;7.38;;;;;;;3.57;80.62;92181.53;5084045;28;20402;-64
2020/12/12 02:35:05;;;;;;;10.40;6.88;;;;;;;3.55;80.63;92167.69;5085587;28;20028;-64
2020/12/12 02:37:31;;;;;;;9.63;6.45;;;;;;;3.60;81.52;92164.09;5089541;28;20051;-65
2020/12/12 02:39:56;;;;;;;9.35;5.85;;;;;;;3.70;81.32;92161.63;5089841;28;20040;-64
2020/12/12 02:42:22;;;;;;;10.02;6.60;;;;;;;3.89;80.62;92156.66;5087890;28;20032;-64
2020/12/12 02:44:51;;;;;;;8.82;6.55;;;;;;;3.96;80.67;92158.72;5087778;28;20035;-64
2020/12/12 02:47:17;;;;;;;9.23;6.25;;;;;;;3.90;80.49;92147.19;5088047;28;20564;-64
2020/12/12 02:49:43;;;;;;;11.45;7.25;;;;;;;3.89;80.48;92153.94;5092504;28;20031;-64
2020/12/12 02:52:08;;;;;;;10.43;7.32;;;;;;;3.96;80.03;92155.97;5102929;28;20027;-65
2020/12/12 02:54:34;;;;;;;11.00;6.95;;;;;;;3.97;80.15;92146.50;5105408;28;20028;-64
2020/12/12 02:56:59;;;;;;;13.30;7.32;;;;;;;4.04;80.19;92151.28;5085720;28;20039;-64
2020/12/12 02:59:24;;;;;;;17.40;7.07;;;;;;;4.03;80.06;92144.34;5090686;28;20030;-65
2020/12/12 03:01:50;;;;;;;12.05;7.63;;;;;;;4.00;80.32;92145.44;5107723;28;20429;-64
2020/12/12 03:04:15;;;;;;;16.90;8.35;;;;;;;4.10;79.85;92142.91;5103301;28;20321;-64
2020/12/12 03:06:44;;;;;;;14.00;8.27;;;;;;;4.13;79.38;92134.41;5094090;28;20028;-65
2020/12/12 03:09:09;;;;;;;17.05;8.05;;;;;;;4.16;79.09;92140.78;5104506;28;20523;-65
2020/12/12 03:11:35;;;;;;;11.05;7.03;;;;;;;4.25;79.26;92134.81;5104100;28;20039;-65
2020/12/12 03:14:00;;;;;;;11.05;6.20;;;;;;;4.17;79.15;92139.50;5090337;28;20039;-65
2020/12/12 03:16:25;;;;;;;15.80;9.18;;;;;;;4.08;79.24;92129.81;5104906;28;20787;-65
2020/12/12 03:18:51;;;;;;;13.73;8.20;;;;;;;4.10;78.85;92132.00;5092655;28;20028;-65
2020/12/12 03:21:16;;;;;;;13.52;7.82;;;;;;;4.19;79.08;92131.50;5090772;28;20020;-64
2020/12/12 03:23:42;;;;;;;17.17;8.85;;;;;;;4.21;78.51;92132.44;5092636;28;20101;-64
2020/12/12 03:26:07;;;;;;;13.15;8.07;;;;;;;4.28;78.62;92120.81;5086310;28;20108;-63
2020/12/12 03:28:32;;;;;;;12.93;7.63;;;;;;;4.24;78.68;92127.88;5089143;28;20043;-63
2020/12/12 03:30:58;;;;;;;11.70;6.82;;;;;;;4.22;79.32;92122.25;5086640;28;20043;-63
2020/12/12 03:33:23;;;;;;;11.88;8.30;;;;;;;4.21;79.50;92120.75;5095399;28;20084;-63
2020/12/12 03:35:49;;;;;;;15.77;8.98;;;;;;;4.27;79.65;92115.88;5103433;28;20054;-63
2020/12/12 03:38:14;;;;;;;14.65;8.38;;;;;;;4.13;80.22;92114.53;5099299;28;20484;-63
2020/12/12 03:40:39;;;;;;;17.40;9.35;;;;;;;4.18;80.42;92119.84;5088697;28;20040;-63
2020/12/12 03:43:05;;;;;;;17.10;9.77;;;;;;;4.15;80.26;92112.75;5087258;28;20493;-64
2020/12/12 03:45:30;;;;;;;19.65;10.63;;;;;;;4.23;80.27;92110.03;5089137;28;20038;-64
2020/12/12 03:47:56;;;;;;;16.10;10.25;;;;;;;4.23;79.42;92099.84;5093319;28;20797;-64
2020/12/12 03:50:27;;;;;;;56.53;24.27;;;;;;;4.31;78.91;92099.88;5085488;28;20024;-64
2020/12/12 03:52:53;;;;;;;36.63;16.08;;;;;;;4.40;79.26;92110.28;5105283;28;20427;-64
2020/12/12 03:55:19;;;;;;;26.83;12.88;;;;;;;4.41;79.30;92100.81;5089028;28;20200;-64
2020/12/12 03:57:45;;;;;;;26.92;13.15;;;;;;;4.38;79.82;92099.88;5089119;28;20032;-64
2020/12/12 04:00:10;;;;;;;25.77;12.50;;;;;;;4.34;79.76;92096.78;5100166;28;20055;-64
2020/12/12 04:02:35;;;;;;;20.10;11.27;;;;;;;4.41;79.90;92095.34;5097063;28;20044;-65
2020/12/12 04:05:01;;;;;;;19.60;11.55;;;;;;;4.50;79.59;92094.84;5094486;28;20056;-65
2020/12/12 04:07:26;;;;;;;30.33;14.60;;;;;;;4.40;79.60;92093.88;5100022;28;20019;-65
2020/12/12 04:09:52;;;;;;;23.27;11.48;;;;;;;4.23;80.17;92088.91;5105426;28;20032;-65
2020/12/12 04:12:17;;;;;;;17.50;8.80;;;;;;;4.21;80.32;92086.00;5092158;28;20036;-65
2020/12/12 04:14:42;;;;;;;16.23;9.63;;;;;;;4.17;81.06;92090.34;5091983;28;20027;-65
2020/12/12 04:17:08;;;;;;;14.35;8.02;;;;;;;4.18;80.83;92084.31;5090969;28;20070;-65
2020/12/12 04:19:33;;;;;;;13.07;7.40;;;;;;;4.25;80.47;92088.34;5089285;28;20028;-65
2020/12/12 04:21:59;;;;;;;12.52;7.53;;;;;;;4.29;80.46;92083.28;5092183;28;20532;-65
2020/12/12 04:24:24;;;;;;;11.27;7.05;;;;;;;4.24;80.84;92076.72;5098249;28;20027;-65
2020/12/12 04:26:49;;;;;;;14.35;8.40;;;;;;;4.35;80.19;92079.09;5095027;28;20476;-65
2020/12/12 04:29:15;;;;;;;19.13;9.35;;;;;;;4.34;80.28;92074.94;5075314;28;20446;-65
2020/12/12 04:31:40;;;;;;;13.02;8.20;;;;;;;4.39;80.21;92071.31;5093855;28;20028;-65
2020/12/12 04:34:06;;;;;;;11.48;7.78;;;;;;;4.34;80.12;92069.47;5088896;28;20027;-65
2020/12/12 04:36:34;;;;;;;12.50;8.90;;;;;;;4.42;80.58;92072.94;5089392;28;20474;-65
2020/12/12 04:39:00;;;;;;;11.90;9.23;;;;;;;4.49;80.24;92068.78;5085155;28;20051;-65
2020/12/12 04:41:26;;;;;;;23.58;12.55;;;;;;;4.41;80.92;92060.56;5102080;28;20023;-65
2020/12/12 04:43:52;;;;;;;53.60;22.00;;;;;;;4.50;81.09;92057.28;5097951;28;20041;-65
2020/12/12 04:46:18;;;;;;;34.88;18.17;;;;;;;4.54;81.20;92057.69;5097592;28;20019;-64
2020/12/12 04:48:44;;;;;;;50.15;22.63;;;;;;;4.43;81.19;92054.56;5090536;28;20035;-65
2020/12/12 04:51:10;;;;;;;33.00;18.10;;;;;;;4.53;81.19;92050.00;5090588;28;20028;-65
2020/12/12 04:53:35;;;;;;;29.92;14.30;;;;;;;4.56;81.28;92051.66;5085122;28;20020;-65
2020/12/12 04:56:03;;;;;;;19.95;10.85;;;;;;;4.60;81.34;92049.31;5088053;28;21593;-64
2020/12/12 04:58:29;;;;;;;12.32;7.55;;;;;;;4.59;80.46;92036.91;5101792;28;20058;-63
2020/12/12 05:00:56;;;;;;;12.25;6.25;;;;;;;4.59;80.91;92050.59;5095342;28;20497;-63
2020/12/12 05:03:23;;;;;;;16.55;7.80;;;;;;;4.60;80.94;92035.63;5101662;28;20395;-63
2020/12/12 05:05:49;;;;;;;12.38;7.68;;;;;;;4.72;80.60;92041.50;5101948;28;21544;-63
2020/12/12 05:08:15;;;;;;;8.13;4.05;;;;;;;4.71;80.57;92040.75;5104636;28;20031;-63
2020/12/12 05:10:48;;;;;;;2.67;2.00;;;;;;;4.60;80.50;92039.09;5089439;28;20032;-63
2020/12/12 05:13:20;;;;;;;3.45;2.33;;;;;;;4.58;80.76;92035.44;5098999;28;20039;-63
2020/12/12 05:15:47;;;;;;;6.30;2.05;;;;;;;4.57;80.91;92031.25;5098338;28;20107;-63
2020/12/12 05:18:13;;;;;;;2.10;1.90;;;;;;;4.57;80.84;92031.97;5099286;28;20046;-63
2020/12/12 05:20:39;;;;;;;1.67;1.17;;;;;;;4.54;80.72;92035.81;5090605;28;20458;-63
2020/12/12 05:23:23;;;;;;;2.88;2.20;;;;;;;4.47;80.57;92027.59;5084078;28;20040;-63
2020/12/12 05:25:50;;;;;;;7.15;2.33;;;;;;;4.46;80.55;92023.41;5098647;28;20111;-63
2020/12/12 05:28:18;;;;;;;16.10;7.35;;;;;;;4.49;81.01;92023.06;5086632;28;21659;-63
2020/12/12 05:30:45;;;;;;;23.33;12.43;;;;;;;4.44;81.02;92028.69;5100194;28;20034;-63
2020/12/12 05:33:13;;;;;;;10.63;6.68;;;;;;;4.41;81.40;92025.03;5087272;28;20475;-63
2020/12/12 05:35:39;;;;;;;4.88;3.72;;;;;;;4.47;80.91;92022.13;5103182;28;20026;-63
2020/12/12 05:38:06;;;;;;;16.33;9.57;;;;;;;4.44;80.90;92023.94;5104497;28;20055;-63
2020/12/12 05:40:35;;;;;;;22.45;14.30;;;;;;;4.46;80.82;92021.38;5098954;28;20507;-63
2020/12/12 05:43:02;;;;;;;9.25;6.00;;;;;;;4.44;80.27;92023.22;5103334;28;20024;-65
2020/12/12 05:45:28;;;;;;;4.57;2.80;;;;;;;4.50;80.20;92018.31;5103809;28;20509;-64
2020/12/12 05:47:53;;;;;;;2.72;2.22;;;;;;;4.41;80.03;92021.56;5104017;28;20106;-64
2020/12/12 05:50:20;;;;;;;6.90;3.15;;;;;;;4.34;79.72;92017.56;5099521;28;20081;-65
2020/12/12 05:52:46;;;;;;;6.30;3.83;;;;;;;4.35;79.49;92021.72;5085338;28;20031;-65
2020/12/12 05:55:12;;;;;;;9.85;6.68;;;;;;;4.36;79.84;92011.53;5089855;28;20019;-65
2020/12/12 05:57:37;;;;;;;8.77;6.03;;;;;;;4.27;79.70;92012.78;5086219;28;20028;-65
2020/12/12 06:00:05;;;;;;;3.80;2.20;;;;;;;4.25;79.83;92017.34;5082035;28;20016;-65
2020/12/12 06:02:34;;;;;;;4.57;2.83;;;;;;;4.35;80.00;92015.56;5102158;28;20034;-63
2020/12/12 06:05:03;;;;;;;5.40;2.53;;;;;;;4.40;79.34;92014.63;5102950;28;20020;-63
2020/12/12 06:07:30;;;;;;;3.97;2.47;;;;;;;4.45;79.05;92014.47;5089169;28;20039;-64
2020/12/12 06:10:01;;;;;;;7.65;4.50;;;;;;;4.36;79.07;92012.28;5103111;28;20036;-64
2020/12/12 06:12:27;;;;;;;9.15;4.00;;;;;;;4.29;79.25;92009.50;5093154;28;20032;-64
2020/12/12 06:14:55;;;;;;;2.83;1.63;;;;;;;4.24;79.59;92010.44;5086502;28;20023;-64
2020/12/12 06:17:40;;;;;;;7.32;3.28;;;;;;;4.18;79.18;92010.56;5087651;28;20020;-64
2020/12/12 06:20:05;;;;;;;11.88;6.70;;;;;;;4.16;79.44;92009.69;5105508;28;20023;-64
2020/12/12 06:22:31;;;;;;;12.27;6.28;;;;;;;4.09;79.81;92013.13;5103425;28;20379;-64
2020/12/12 06:25:01;;;;;;;9.20;5.50;;;;;;;4.18;80.14;92007.84;5107468;28;20022;-64
2020/12/12 06:27:37;;;;;;;15.43;6.80;;;;;;;4.23;79.63;92009.69;5106375;28;20502;-64
2020/12/12 06:30:04;;;;;;;12.35;5.97;;;;;;;4.06;79.57;92001.28;5103298;28;20103;-65
2020/12/12 06:32:30;;;;;;;5.43;2.53;;;;;;;4.14;79.31;91995.81;5092519;28;20019;-64
2020/12/12 06:34:55;;;;;;;12.27;4.57;;;;;;;4.16;79.45;91999.47;5105908;28;20452;-64
2020/12/12 06:37:28;;;;;;;9.98;5.38;;;;;;;4.24;79.27;91994.78;5088260;28;20020;-65
2020/12/12 06:39:54;;;;;;;21.20;11.82;;;;;;;4.18;79.15;91991.47;5106521;28;20538;-64
2020/12/12 06:42:30;;;;;;;15.77;7.45;;;;;;;4.19;79.40;91992.19;5090264;28;20040;-64
2020/12/12 06:44:56;;;;;;;11.52;6.90;;;;;;;4.28;79.41;91988.94;5090907;28;20024;-64
2020/12/12 06:47:37;;;;;;;9.93;5.80;;;;;;;4.36;79.16;91990.41;5085123;28;20035;-64
2020/12/12 06:50:17;;;;;;;14.23;5.07;;;;;;;4.37;78.93;91986.41;5084628;28;20391;-64
2020/12/12 06:52:43;;;;;;;9.68;4.07;;;;;;;4.23;79.15;91982.38;5093307;28;20027;-64
2020/12/12 06:55:13;;;;;;;34.10;18.58;;;;;;;4.03;79.49;91982.53;5097793;28;20023;-63
2020/12/12 06:57:42;;;;;;;13.52;6.05;;;;;;;4.07;79.31;91977.44;5088818;28;20116;-64
2020/12/12 07:00:18;;;;;;;10.02;5.70;;;;;;;4.05;78.71;91983.41;5094737;28;20024;-64
2020/12/12 07:03:06;;;;;;;17.48;7.90;;;;;;;3.99;79.31;91980.13;5089468;28;20146;-64
2020/12/12 07:05:37;;;;;;;5.38;3.72;;;;;;;3.96;79.47;91983.22;5092615;28;20468;-64
2020/12/12 07:08:07;;;;;;;4.53;3.88;;;;;;;3.98;79.81;91981.41;5095048;28;20036;-64
2020/12/12 07:10:34;;;;;;;5.50;2.38;;;;;;;3.98;79.80;91973.22;5093524;28;20182;-65
2020/12/12 07:13:00;;;;;;;7.60;3.67;;;;;;;4.08;79.71;91967.94;5099311;28;21591;-65
2020/12/12 07:15:34;;;;;;;31.77;9.00;;;;;;;4.04;79.82;91967.56;5090808;28;20464;-65
2020/12/12 07:18:10;;;;;;;25.45;9.00;;;;;;;4.07;79.40;91964.47;5090805;28;20020;-65
2020/12/12 07:20:40;;;;;;;10.93;4.68;;;;;;;4.11;79.31;91964.16;5092836;28;20027;-65
2020/12/12 07:23:07;;;;;;;12.07;5.05;;;;;;;4.06;79.22;91968.50;5088817;28;20028;-65
2020/12/12 07:25:33;;;;;;;8.88;4.32;;;;;;;4.02;78.69;91961.94;5086194;28;20464;-64
2020/12/12 07:27:59;;;;;;;6.55;3.13;;;;;;;4.01;78.96;91961.19;5089435;28;20136;-65
2020/12/12 07:30:25;;;;;;;4.00;2.55;;;;;;;3.93;79.44;91952.25;5091651;28;20028;-64
2020/12/12 07:32:50;;;;;;;6.25;4.50;;;;;;;4.00;78.72;91967.22;5089880;28;20131;-64
2020/12/12 07:35:16;;;;;;;2.97;2.53;;;;;;;4.07;79.14;91956.28;5090479;28;20448;-64
2020/12/12 07:37:41;;;;;;;2.15;1.55;;;;;;;3.93;78.78;91957.00;5086964;28;20039;-65
2020/12/12 07:40:06;;;;;;;4.25;2.85;;;;;;;3.85;79.20;91956.97;5092384;28;20024;-64
2020/12/12 07:42:34;;;;;;;2.80;1.98;;;;;;;3.79;79.61;91959.13;5090411;28;20028;-65
2020/12/12 07:45:24;;;;;;;2.15;1.52;;;;;;;3.84;79.34;91958.97;5089531;28;20465;-65
2020/12/12 07:47:50;;;;;;;1.95;1.20;;;;;;;3.78;79.57;91961.16;5088734;28;20039;-64
2020/12/12 07:50:16;;;;;;;2.80;1.20;;;;;;;3.84;79.46;91963.69;5086478;28;20040;-65
2020/12/12 07:52:43;;;;;;;1.95;1.67;;;;;;;3.90;78.80;91956.06;5091405;28;20415;-65
2020/12/12 07:55:11;;;;;;;8.95;3.38;;;;;;;3.88;78.80;91955.88;5088161;28;20027;-64
2020/12/12 07:57:41;;;;;;;3.90;2.90;;;;;;;3.85;78.53;91940.59;5091928;28;20100;-67
2020/12/12 08:00:08;;;;;;;2.38;1.92;;;;;;;3.93;78.21;91955.00;5089601;28;20020;-67
2020/12/12 08:02:33;;;;;;;2.90;1.95;;;;;;;3.77;78.72;91940.56;5090503;28;20069;-66
2020/12/12 08:05:00;;;;;;;5.00;2.63;;;;;;;3.87;79.18;91956.44;5091616;28;20024;-63
2020/12/12 08:07:29;;;;;;;2.75;2.00;;;;;;;3.97;77.94;91946.44;5089994;28;20032;-63
2020/12/12 08:09:54;;;;;;;2.65;1.85;;;;;;;3.89;77.83;91949.16;5090764;28;20036;-63
2020/12/12 08:12:34;;;;;;;3.85;2.67;;;;;;;3.88;78.82;91944.25;5088092;28;20093;-64
2020/12/12 08:15:01;;;;;;;5.68;2.88;;;;;;;3.96;78.59;91945.72;5088053;28;20035;-64
2020/12/12 08:17:28;;;;;;;5.97;2.97;;;;;;;3.91;78.89;91948.59;5087361;28;20027;-64
2020/12/12 08:19:57;;;;;;;10.43;4.15;;;;;;;4.04;78.55;91949.19;5093446;28;20028;-64
2020/12/12 08:22:24;;;;;;;5.05;2.47;;;;;;;4.02;77.76;91946.28;5086805;28;20042;-64
2020/12/12 08:24:49;;;;;;;4.57;2.47;;;;;;;4.01;77.76;91939.34;5087792;28;20591;-64
2020/12/12 08:27:23;;;;;;;6.93;3.25;;;;;;;4.09;78.61;91945.56;5086623;28;20053;-64
2020/12/12 08:29:53;;;;;;;6.63;3.97;;;;;;;4.09;78.13;91940.13;5085717;28;20028;-64
2020/12/12 08:32:38;;;;;;;2.60;1.73;;;;;;;4.06;77.91;91940.44;5089498;28;20024;-64
2020/12/12 08:35:22;;;;;;;3.92;2.53;;;;;;;3.99;77.75;91935.69;5089809;28;20649;-64
2020/12/12 08:37:55;;;;;;;5.28;3.28;;;;;;;3.94;77.83;91915.50;5091442;28;20056;-64
2020/12/12 08:40:22;;;;;;;6.30;2.97;;;;;;;4.10;77.28;91930.63;5089362;28;20383;-64
2020/12/12 08:43:05;;;;;;;6.60;3.92;;;;;;;3.99;77.65;91925.50;5087353;28;20040;-64
2020/12/12 08:45:32;;;;;;;11.80;5.22;;;;;;;4.08;78.19;91935.91;5088900;28;20027;-64
2020/12/12 08:48:15;;;;;;;9.57;4.00;;;;;;;4.15;78.20;91932.47;5092486;28;20051;-64
2020/12/12 08:50:52;;;;;;;11.27;4.63;;;;;;;4.13;77.08;91929.56;5089552;28;20039;-64
2020/12/12 08:53:19;;;;;;;10.50;4.47;;;;;;;4.09;77.40;91923.00;5085517;28;20024;-64
2020/12/12 08:56:00;;;;;;;7.22;3.33;;;;;;;4.09;77.15;91926.47;5090813;28;20030;-64
2020/12/12 08:58:37;;;;;;;13.85;5.00;;;;;;;4.22;76.86;91933.75;5087514;28;21390;-63
2020/12/12 09:01:17;;;;;;;10.07;4.22;;;;;;;4.15;77.69;91931.75;5091750;28;20043;-64
2020/12/12 09:03:52;;;;;;;12.93;5.90;;;;;;;4.19;76.30;91926.63;5088013;28;20027;-64
2020/12/12 09:06:18;;;;;;;16.00;6.38;;;;;;;4.12;76.75;91930.09;5090170;28;20051;-63
2020/12/12 09:08:44;;;;;;;13.57;6.57;;;;;;;4.17;76.67;91924.47;5077488;28;20528;-64
2020/12/12 09:11:16;;;;;;;5.25;2.95;;;;;;;4.08;77.30;91913.31;5088250;28;20560;-64
2020/12/12 09:13:42;;;;;;;13.48;5.63;;;;;;;4.20;76.58;91917.91;5087137;28;20036;-64
2020/12/12 09:16:09;;;;;;;14.07;6.25;;;;;;;4.23;77.60;91925.00;5079628;28;20034;-63
2020/12/12 09:18:47;;;;;;;10.50;4.80;;;;;;;4.29;76.39;91925.56;5084729;28;20149;-63
2020/12/12 09:21:13;;;;;;;10.32;4.47;;;;;;;4.24;76.94;91923.00;5085133;28;20081;-64
2020/12/12 09:23:39;;;;;;;11.43;4.93;;;;;;;3.98;77.51;91921.34;5094170;28;20035;-63
2020/12/12 09:26:05;;;;;;;11.55;5.35;;;;;;;4.02;77.77;91926.44;5090233;28;20123;-64
2020/12/12 09:28:31;;;;;;;3.58;1.90;;;;;;;4.04;77.61;91921.16;5096172;28;20037;-64
2020/12/12 09:30:57;;;;;;;9.13;5.38;;;;;;;4.06;76.75;91916.63;5085926;28;20036;-64
2020/12/12 09:33:22;;;;;;;70.60;63.03;;;;;;;3.91;77.80;91922.03;5089417;28;20462;-64
2020/12/12 09:35:48;;;;;;;8.07;6.85;;;;;;;4.01;77.71;91922.22;5088559;28;20023;-64
2020/12/12 09:38:13;;;;;;;3.05;2.20;;;;;;;4.03;77.94;91917.69;5085278;28;20133;-64
2020/12/12 09:40:39;;;;;;;4.05;2.40;;;;;;;4.05;77.01;91917.16;5085377;28;20089;-64
2020/12/12 09:43:06;;;;;;;2.67;1.35;;;;;;;4.06;78.06;91918.59;5090332;28;20036;-64
2020/12/12 09:45:32;;;;;;;5.20;3.28;;;;;;;4.24;77.35;91918.28;5069534;28;20553;-65
2020/12/12 09:47:57;;;;;;;2.03;1.65;;;;;;;4.35;77.50;91917.91;5080772;28;20076;-64
2020/12/12 09:50:33;;;;;;;1.83;1.45;;;;;;;4.43;77.21;91907.00;5084873;28;21363;-64
2020/12/12 09:53:03;;;;;;;2.75;1.48;;;;;;;4.46;77.24;91912.09;5085995;28;20032;-64
2020/12/12 09:55:29;;;;;;;2.58;1.60;;;;;;;4.56;76.39;91912.28;5083410;28;20118;-64
2020/12/12 09:57:56;;;;;;;2.90;1.80;;;;;;;4.48;76.41;91901.34;5081820;28;20028;-65
2020/12/12 10:00:21;;;;;;;0.98;0.90;;;;;;;4.52;76.03;91904.44;5086109;28;20113;-64
2020/12/12 10:02:47;;;;;;;4.72;2.63;;;;;;;4.51;76.61;91902.97;5086150;28;20035;-64
2020/12/12 10:05:12;;;;;;;5.72;2.70;;;;;;;4.44;75.85;91897.53;5083985;28;20030;-64
2020/12/12 10:07:38;;;;;;;8.57;3.53;;;;;;;4.67;75.91;91902.97;5084941;28;20438;-65
2020/12/12 10:10:04;;;;;;;5.38;3.15;;;;;;;4.50;76.30;91896.03;5070490;28;20032;-64
2020/12/12 10:12:30;;;;;;;10.63;4.25;;;;;;;4.30;76.47;91885.31;5086158;28;20647;-65
2020/12/12 10:14:55;;;;;;;7.18;2.85;;;;;;;4.28;77.12;91905.00;5086273;28;20032;-65
2020/12/12 10:17:20;;;;;;;10.45;4.00;;;;;;;4.28;77.11;91905.00;5087359;28;20035;-65
2020/12/12 10:19:46;;;;;;;6.57;4.55;;;;;;;4.33;77.29;91892.44;5083546;28;20016;-65
2020/12/12 10:22:11;;;;;;;4.40;3.25;;;;;;;4.48;75.88;91890.41;5087469;28;20027;-65
2020/12/12 10:24:37;;;;;;;10.50;3.13;;;;;;;4.50;75.45;91885.13;5083586;28;20043;-66
2020/12/12 10:27:03;;;;;;;7.28;4.00;;;;;;;4.48;75.81;91889.69;5083422;28;20031;-65
2020/12/12 10:29:28;;;;;;;11.35;4.50;;;;;;;4.63;75.66;91886.94;5083892;28;20456;-66
2020/12/12 10:31:53;;;;;;;10.02;4.10;;;;;;;4.63;75.08;91893.13;5083488;28;20036;-65
2020/12/12 10:34:19;;;;;;;5.80;3.67;;;;;;;4.75;75.24;91890.03;5082611;28;20723;-65
2020/12/12 10:36:44;;;;;;;9.48;3.78;;;;;;;4.69;75.07;91894.94;5082282;28;20027;-65
2020/12/12 10:39:10;;;;;;;4.78;2.55;;;;;;;4.73;75.10;91884.38;5084382;28;20052;-65
2020/12/12 10:41:35;;;;;;;2.78;1.90;;;;;;;4.76;75.10;91886.03;5082311;28;20145;-65
2020/12/12 10:44:01;;;;;;;3.30;1.70;;;;;;;4.62;75.58;91888.22;5084556;28;20054;-64
2020/12/12 10:46:26;;;;;;;1.90;1.30;;;;;;;4.53;75.59;91889.50;5089422;28;20024;-65
2020/12/12 10:48:52;;;;;;;2.55;1.35;;;;;;;4.42;75.74;91876.19;5086407;28;20027;-65
2020/12/12 10:51:17;;;;;;;4.07;1.85;;;;;;;4.56;75.07;91880.22;5089931;28;20039;-65
2020/12/12 10:53:43;;;;;;;3.33;2.22;;;;;;;4.69;75.16;91889.50;5085066;28;21561;-66
2020/12/12 10:56:08;;;;;;;5.43;2.80;;;;;;;4.67;74.58;91881.84;5092069;28;20107;-65
2020/12/12 10:58:34;;;;;;;3.58;1.55;;;;;;;4.68;74.28;91885.31;5086448;28;20127;-65
2020/12/12 11:01:00;;;;;;;2.75;1.55;;;;;;;4.71;74.69;91882.19;5093308;28;20552;-65
2020/12/12 11:03:25;;;;;;;2.38;1.35;;;;;;;4.70;75.03;91885.50;5090413;28;20039;-66
2020/12/12 11:05:51;;;;;;;4.68;1.60;;;;;;;4.57;75.04;91848.88;5089966;28;20097;-65
2020/12/12 11:08:16;;;;;;;3.13;1.85;;;;;;;4.71;74.82;91887.66;5088977;28;20534;-64
2020/12/12 11:10:42;;;;;;;2.22;1.17;;;;;;;4.66;75.28;91879.66;5090476;28;20036;-64
2020/12/12 11:13:07;;;;;;;10.30;3.75;;;;;;;4.82;75.72;91887.28;5088186;28;20027;-65
2020/12/12 11:15:33;;;;;;;4.78;2.17;;;;;;;5.02;74.37;91885.63;5089058;28;20023;-65
2020/12/12 11:17:59;;;;;;;6.35;2.97;;;;;;;4.84;73.82;91851.19;5089819;28;20031;-66
2020/12/12 11:20:25;;;;;;;4.43;2.30;;;;;;;4.95;72.89;91883.63;5082604;28;20112;-65
2020/12/12 11:22:50;;;;;;;5.32;2.90;;;;;;;4.91;73.71;91892.19;5090436;28;21714;-65
2020/12/12 11:25:16;;;;;;;4.30;2.20;;;;;;;4.77;73.60;91890.19;5083354;28;20036;-65
2020/12/12 11:27:45;;;;;;;4.07;2.05;;;;;;;4.56;74.94;91868.56;5083589;28;20040;-65
2020/12/12 11:30:11;;;;;;;4.65;2.17;;;;;;;4.63;74.39;91892.41;5082568;28;20040;-64
2020/12/12 11:32:38;;;;;;;3.03;1.95;;;;;;;4.61;74.50;91890.22;5083003;28;20515;-64
2020/12/12 11:35:48;;;;;;;7.18;4.03;;;;;;;4.40;74.85;91886.94;5079901;28;20100;-65